createdAt,value
2023-02-28T13:45:47.500Z,21.975708
2023-02-28T13:46:46.592Z,21.975708
2023-02-28T13:47:45.391Z,21.975708
2023-02-28T13:48:45.535Z,21.955566
2023-02-28T13:49:45.487Z,21.975708
2023-02-28T13:50:45.555Z,21.985779
2023-02-28T13:51:45.677Z,21.985779
2023-02-28T13:52:48.442Z,21.985779
2023-02-28T13:53:46.085Z,22.015991
2023-02-28T13:54:45.613Z,22.015991
2023-02-28T13:55:45.462Z,22.036133
2023-02-28T13:56:45.565Z,22.036133
2023-02-28T13:57:45.476Z,22.056274
2023-02-28T13:58:46.392Z,22.076416
2023-02-28T13:59:45.581Z,22.086487
2023-02-28T14:00:45.351Z,22.116699
2023-02-28T14:01:45.437Z,22.116699
2023-02-28T14:02:45.469Z,22.146912
2023-02-28T14:03:46.512Z,22.167053
2023-02-28T14:04:46.515Z,22.197266
2023-02-28T14:05:45.321Z,22.207336
2023-02-28T14:06:45.398Z,22.237549
2023-02-28T14:07:46.470Z,22.25769
2023-02-28T14:08:46.291Z,22.287903
2023-02-28T14:09:46.292Z,22.287903
2023-02-28T14:10:45.375Z,22.308044
2023-02-28T14:11:46.258Z,22.348328
2023-02-28T14:12:45.245Z,22.37854
2023-02-28T14:13:45.178Z,22.408752
2023-02-28T14:14:45.261Z,22.418823
2023-02-28T14:15:45.382Z,22.449036
2023-02-28T14:16:45.256Z,22.459106
2023-02-28T14:17:45.218Z,22.479248
2023-02-28T14:18:46.314Z,22.539673
2023-02-28T14:19:45.143Z,22.559814
2023-02-28T14:20:46.034Z,22.559814
2023-02-28T14:21:45.125Z,22.590027
2023-02-28T14:22:45.216Z,22.600098
2023-02-28T14:23:45.311Z,22.63031
2023-02-28T14:24:45.079Z,22.640381
